Time;durP1;ratioP1;P1;durP2;ratioP2;P2;SDS_P1;SDS_P2;PMS_P1;PMS_P2;Temp;Humidity;BMP_temperature;BMP_pressure;BME280_temperature;BME280_humidity;BME280_pressure;Samples;Min_cycle;Max_cycle;Signal;HPM_P1;HPM_P2
2021/10/26 00:00:18;;;;;;;7.17;6.40;;;9.90;59.10;;;;;;5034882;28;20177;-88
2021/10/26 00:02:44;;;;;;;6.27;5.70;;;9.90;59.40;;;;;;5034809;28;20184;-85
2021/10/26 00:05:10;;;;;;;8.10;6.80;;;10.00;58.40;;;;;;5033664;28;20192;-88
2021/10/26 00:07:36;;;;;;;8.20;6.57;;;9.90;60.20;;;;;;5035803;28;20212;-87
2021/10/26 00:10:04;;;;;;;6.77;6.10;;;10.00;59.20;;;;;;5035071;28;20986;-88
2021/10/26 00:12:30;;;;;;;7.63;6.93;;;9.90;60.10;;;;;;5034866;28;20267;-88
2021/10/26 00:14:56;;;;;;;6.70;6.10;;;10.00;59.40;;;;;;5034164;28;20505;-88
2021/10/26 00:17:21;;;;;;;7.40;6.77;;;10.00;59.40;;;;;;5034477;28;20192;-88
2021/10/26 00:19:47;;;;;;;7.43;6.70;;;10.00;59.80;;;;;;5034345;28;20176;-89
2021/10/26 00:22:13;;;;;;;6.50;5.50;;;10.00;59.30;;;;;;5034825;28;20184;-88
2021/10/26 00:24:38;;;;;;;7.70;7.00;;;10.10;59.60;;;;;;5034952;28;20180;-86
2021/10/26 00:27:04;;;;;;;7.53;6.10;;;10.10;59.30;;;;;;5033902;28;20283;-88
2021/10/26 00:29:30;;;;;;;8.77;7.87;;;10.10;59.50;;;;;;5034259;28;20259;-88
2021/10/26 00:31:55;;;;;;;8.37;6.50;;;10.10;59.30;;;;;;5034914;28;20519;-89
2021/10/26 00:34:21;;;;;;;7.93;7.20;;;10.10;59.20;;;;;;5035086;28;20188;-88
2021/10/26 00:36:47;;;;;;;7.97;6.77;;;10.20;59.20;;;;;;5034650;28;20188;-89
2021/10/26 00:39:14;;;;;;;6.80;6.20;;;10.20;59.70;;;;;;5034635;28;20264;-86
2021/10/26 00:41:39;;;;;;;7.37;6.67;;;10.20;59.80;;;;;;5034487;28;20238;-87
2021/10/26 00:44:05;;;;;;;6.73;6.00;;;10.20;59.40;;;;;;5034101;28;20420;-88
2021/10/26 00:46:34;;;;;;;8.50;7.30;;;10.20;59.10;;;;;;5034082;28;20181;-87
2021/10/26 00:49:01;;;;;;;7.50;6.33;;;10.20;59.10;;;;;;5033963;28;20765;-87
2021/10/26 00:51:31;;;;;;;6.70;6.10;;;10.30;59.10;;;;;;5033481;28;20950;-88
2021/10/26 00:53:58;;;;;;;8.40;6.93;;;10.30;59.50;;;;;;5033419;28;20422;-88
2021/10/26 00:56:25;;;;;;;6.00;5.40;;;10.30;59.40;;;;;;5033936;28;20422;-87
2021/10/26 00:58:51;;;;;;;8.60;7.50;;;10.30;59.40;;;;;;5033905;28;20416;-87
2021/10/26 01:01:17;;;;;;;6.67;6.07;;;10.30;59.20;;;;;;5034300;28;20927;-87
2021/10/26 01:03:43;;;;;;;7.40;6.60;;;10.30;59.40;;;;;;5034617;28;20427;-87
2021/10/26 01:06:09;;;;;;;7.00;6.40;;;10.30;59.40;;;;;;5034287;28;20426;-89
2021/10/26 01:08:36;;;;;;;8.10;7.30;;;10.30;59.00;;;;;;5034011;28;20260;-87
2021/10/26 01:11:02;;;;;;;7.30;6.63;;;10.30;58.80;;;;;;5034953;28;20554;-88
2021/10/26 01:13:28;;;;;;;9.00;6.87;;;10.40;58.90;;;;;;5034845;28;20439;-88
2021/10/26 01:15:57;;;;;;;7.23;6.63;;;10.40;58.90;;;;;;5034625;28;20184;-87
2021/10/26 01:18:24;;;;;;;9.80;6.77;;;10.40;59.10;;;;;;5034985;28;20447;-87
2021/10/26 01:20:52;;;;;;;6.23;5.63;;;10.40;58.50;;;;;;5034955;28;20428;-88
2021/10/26 01:23:18;;;;;;;10.90;6.50;;;10.40;58.60;;;;;;5033610;28;20518;-87
2021/10/26 01:25:47;;;;;;;7.80;7.00;;;10.40;59.40;;;;;;5034760;28;20783;-87
2021/10/26 01:28:13;;;;;;;7.00;6.30;;;10.40;59.40;;;;;;5034424;28;20181;-87
2021/10/26 01:30:40;;;;;;;7.80;7.00;;;10.40;58.90;;;;;;5033467;28;20462;-87
2021/10/26 01:33:06;;;;;;;8.77;6.77;;;10.50;59.20;;;;;;5033979;28;20439;-87
2021/10/26 01:35:33;;;;;;;7.50;6.70;;;10.50;58.90;;;;;;5032505;28;20415;-83
2021/10/26 01:38:00;;;;;;;9.30;7.83;;;10.50;59.20;;;;;;5032219;28;20431;-84
2021/10/26 01:40:26;;;;;;;8.30;7.50;;;10.50;59.30;;;;;;5032507;28;20423;-84
2021/10/26 01:42:52;;;;;;;7.43;6.80;;;10.50;59.40;;;;;;5032905;28;20417;-83
2021/10/26 01:45:18;;;;;;;8.60;6.60;;;10.60;59.50;;;;;;5032488;28;20507;-83
2021/10/26 01:47:44;;;;;;;7.50;6.80;;;10.60;59.10;;;;;;5033341;28;20242;-83
2021/10/26 01:50:12;;;;;;;7.70;7.10;;;10.60;59.20;;;;;;5032921;28;20466;-82
2021/10/26 01:52:38;;;;;;;7.30;6.70;;;10.60;59.80;;;;;;5033305;28;20529;-83
2021/10/26 01:55:05;;;;;;;8.20;7.40;;;10.60;60.50;;;;;;5032534;28;20469;-83
2021/10/26 01:57:31;;;;;;;8.23;7.53;;;10.60;61.30;;;;;;5032400;28;20181;-83
2021/10/26 01:59:57;;;;;;;8.93;8.20;;;10.60;61.10;;;;;;5032232;28;20433;-84
2021/10/26 02:02:25;;;;;;;7.23;6.50;;;10.50;62.70;;;;;;5032112;28;20841;-83
2021/10/26 02:04:51;;;;;;;7.53;6.43;;;10.50;63.40;;;;;;5032061;28;20419;-82
2021/10/26 02:07:17;;;;;;;9.27;8.30;;;10.50;65.10;;;;;;5031842;28;20484;-84
2021/10/26 02:09:42;;;;;;;13.13;9.17;;;10.50;66.60;;;;;;5032987;28;20459;-84
2021/10/26 02:12:08;;;;;;;8.00;7.20;;;10.50;67.20;;;;;;5031675;28;20636;-85
2021/10/26 02:14:34;;;;;;;7.20;6.40;;;10.40;68.20;;;;;;5031680;28;20188;-83
2021/10/26 02:17:01;;;;;;;8.13;7.33;;;10.40;68.40;;;;;;5031801;28;20542;-84
2021/10/26 02:19:27;;;;;;;10.13;8.07;;;10.40;69.20;;;;;;5031990;28;20271;-84
2021/10/26 02:21:53;;;;;;;8.50;7.60;;;10.30;69.60;;;;;;5031644;28;20943;-84
2021/10/26 02:24:19;;;;;;;7.53;6.80;;;10.30;70.20;;;;;;5032083;28;20519;-83
2021/10/26 02:26:46;;;;;;;9.23;7.80;;;10.20;69.50;;;;;;5030861;28;20411;-83
2021/10/26 02:29:12;;;;;;;8.03;7.33;;;10.20;71.30;;;;;;5031179;28;20481;-83
2021/10/26 02:31:38;;;;;;;9.80;8.37;;;10.10;73.00;;;;;;5032785;28;20419;-84
2021/10/26 02:34:04;;;;;;;8.50;7.70;;;10.10;73.20;;;;;;5031233;28;20195;-84
2021/10/26 02:36:29;;;;;;;9.30;8.40;;;10.00;74.70;;;;;;5031324;28;20462;-84
2021/10/26 02:38:55;;;;;;;9.87;8.90;;;10.00;76.10;;;;;;5030892;28;20185;-84
2021/10/26 02:41:21;;;;;;;9.30;8.40;;;10.10;77.30;;;;;;5030904;28;20177;-84
2021/10/26 02:43:47;;;;;;;8.87;7.20;;;10.10;76.50;;;;;;5031355;28;20176;-85
2021/10/26 02:46:13;;;;;;;8.90;8.10;;;10.10;76.70;;;;;;5031354;28;20180;-84
2021/10/26 02:48:42;;;;;;;9.40;8.50;;;10.00;77.00;;;;;;5031043;28;20415;-85
2021/10/26 02:51:08;;;;;;;10.10;9.10;;;10.10;77.60;;;;;;5031322;28;20557;-84
2021/10/26 02:53:34;;;;;;;7.20;6.50;;;10.00;78.90;;;;;;5031056;28;20407;-84
2021/10/26 02:55:59;;;;;;;8.53;7.73;;;10.00;79.50;;;;;;5031244;28;20419;-84
2021/10/26 02:58:25;;;;;;;11.43;7.33;;;10.10;79.60;;;;;;5031017;28;20725;-84
2021/10/26 03:00:51;;;;;;;7.93;7.23;;;10.10;79.90;;;;;;5031097;28;20183;-83
2021/10/26 03:03:16;;;;;;;9.57;8.67;;;10.10;79.60;;;;;;5031783;28;20564;-83
2021/10/26 03:05:42;;;;;;;9.27;8.47;;;10.10;80.50;;;;;;5031610;28;20679;-84
2021/10/26 03:08:08;;;;;;;9.70;8.80;;;10.10;81.00;;;;;;5031835;28;20606;-83
2021/10/26 03:10:34;;;;;;;8.97;8.03;;;10.00;81.00;;;;;;5031204;28;20211;-84
2021/10/26 03:12:59;;;;;;;9.63;8.73;;;10.10;81.10;;;;;;5031461;28;20169;-84
2021/10/26 03:15:25;;;;;;;9.00;8.20;;;10.00;81.00;;;;;;5031295;28;20169;-84
2021/10/26 03:17:51;;;;;;;9.83;8.93;;;10.00;82.40;;;;;;5031498;28;20173;-83
2021/10/26 03:20:17;;;;;;;10.30;9.30;;;10.00;81.70;;;;;;5030844;28;20435;-84
2021/10/26 03:22:43;;;;;;;11.50;9.73;;;10.00;81.00;;;;;;5031477;28;20215;-83
2021/10/26 03:25:09;;;;;;;10.93;9.80;;;10.00;81.00;;;;;;5030798;28;20911;-83
2021/10/26 03:27:35;;;;;;;9.00;8.27;;;10.10;81.10;;;;;;5030722;28;20177;-84
2021/10/26 03:30:06;;;;;;;10.53;9.63;;;10.10;81.10;;;;;;5031159;28;20807;-83
2021/10/26 03:32:31;;;;;;;10.47;9.57;;;10.10;81.20;;;;;;5030845;28;20688;-84
2021/10/26 03:34:57;;;;;;;11.53;9.10;;;10.10;82.30;;;;;;5031251;28;20468;-85
2021/10/26 03:37:23;;;;;;;13.53;9.73;;;10.10;82.50;;;;;;5030917;28;20197;-82
2021/10/26 03:39:54;;;;;;;10.17;9.20;;;10.10;81.10;;;;;;5034491;28;20656;-84
2021/10/26 03:42:21;;;;;;;9.60;8.67;;;10.10;82.60;;;;;;5035778;28;20195;-83
2021/10/26 03:44:47;;;;;;;10.60;9.23;;;10.10;82.60;;;;;;5034978;28;20514;-83
2021/10/26 03:47:12;;;;;;;13.93;12.53;;;10.10;82.30;;;;;;5034970;28;20510;-82
2021/10/26 03:49:38;;;;;;;11.67;10.57;;;10.10;82.60;;;;;;5034533;28;20231;-82
2021/10/26 03:52:04;;;;;;;10.00;9.00;;;10.00;82.60;;;;;;5034742;28;20610;-82
2021/10/26 03:54:29;;;;;;;10.87;9.77;;;10.00;82.40;;;;;;5035421;28;20176;-83
2021/10/26 03:56:55;;;;;;;10.50;9.37;;;10.10;81.70;;;;;;5036050;28;20165;-83
2021/10/26 03:59:22;;;;;;;21.83;19.47;;;10.10;81.50;;;;;;5034972;28;20180;-84
2021/10/26 04:01:47;;;;;;;11.23;10.23;;;10.00;81.00;;;;;;5034896;28;20180;-83
2021/10/26 04:04:13;;;;;;;10.23;9.33;;;10.00;81.50;;;;;;5034787;28;20808;-83
2021/10/26 04:06:42;;;;;;;10.60;9.60;;;10.00;81.60;;;;;;5034255;28;20610;-84
2021/10/26 04:09:10;;;;;;;11.48;10.38;;;9.90;81.90;;;;;;5033367;28;20405;-85
2021/10/26 04:12:07;;;;;;;12.30;9.63;;;9.90;81.90;;;;;;5034813;28;20219;-83
2021/10/26 04:14:24;;;;;;;11.23;8.33;;;9.90;81.90;;;;;;5035539;28;20431;-83
2021/10/26 04:16:50;;;;;;;11.60;7.87;;;9.90;82.90;;;;;;5033787;28;20415;-84
2021/10/26 04:19:15;;;;;;;9.83;9.03;;;9.90;82.90;;;;;;5033612;28;20770;-85
2021/10/26 04:21:41;;;;;;;10.10;9.17;;;9.90;83.60;;;;;;5033871;28;20194;-85
2021/10/26 04:24:07;;;;;;;9.70;8.90;;;9.90;83.70;;;;;;5034089;28;20208;-84
2021/10/26 04:26:32;;;;;;;11.53;10.43;;;9.90;84.00;;;;;;5034412;28;20220;-83
2021/10/26 04:28:58;;;;;;;8.67;7.30;;;9.90;84.60;;;;;;5034179;28;20184;-84
2021/10/26 04:31:24;;;;;;;10.30;9.50;;;10.00;83.50;;;;;;5034001;28;20207;-86
2021/10/26 04:33:49;;;;;;;10.43;9.43;;;10.00;82.90;;;;;;5034114;28;20177;-85
2021/10/26 04:36:15;;;;;;;11.40;10.40;;;9.90;83.30;;;;;;5033803;28;20172;-85
2021/10/26 04:38:43;;;;;;;11.50;10.40;;;9.80;82.50;;;;;;5028775;28;20190;-84
2021/10/26 04:41:11;;;;;;;11.87;10.63;;;9.80;81.90;;;;;;5014533;28;20189;-88
2021/10/26 04:43:36;;;;;;;11.87;10.63;;;9.80;82.10;;;;;;5016474;28;20431;-88
2021/10/26 04:46:03;;;;;;;12.10;11.00;;;9.80;81.90;;;;;;5017121;28;20412;-89
2021/10/26 04:48:28;;;;;;;11.20;10.10;;;9.70;82.50;;;;;;5015892;28;20174;-90
2021/10/26 04:50:54;;;;;;;11.70;10.50;;;9.80;81.50;;;;;;5013601;28;20464;-87
2021/10/26 04:53:20;;;;;;;11.30;10.30;;;9.70;81.30;;;;;;5014489;28;20319;-89
2021/10/26 04:55:46;;;;;;;11.47;10.27;;;9.60;81.70;;;;;;5014510;28;20176;-87
2021/10/26 04:58:12;;;;;;;11.43;8.57;;;9.60;82.40;;;;;;5014518;28;20785;-85
2021/10/26 05:00:38;;;;;;;11.90;10.63;;;9.60;83.30;;;;;;5014892;28;20504;-83
2021/10/26 05:03:04;;;;;;;10.27;9.37;;;9.60;83.40;;;;;;5013209;28;20634;-83
2021/10/26 05:05:29;;;;;;;11.47;10.47;;;9.60;82.20;;;;;;5013845;28;20531;-84
2021/10/26 05:07:55;;;;;;;10.63;9.67;;;9.70;81.80;;;;;;5013729;28;20419;-82
2021/10/26 05:10:21;;;;;;;12.43;11.40;;;9.70;81.80;;;;;;5013484;28;20694;-83
2021/10/26 05:12:46;;;;;;;12.07;10.97;;;9.70;81.80;;;;;;5013725;28;20177;-83
2021/10/26 05:15:12;;;;;;;12.40;11.20;;;9.70;81.60;;;;;;5013988;28;20181;-82
2021/10/26 05:17:40;;;;;;;11.43;10.33;;;9.70;81.60;;;;;;5013167;28;20557;-82
2021/10/26 05:20:08;;;;;;;13.03;10.03;;;9.70;80.80;;;;;;5013282;28;20178;-84
2021/10/26 05:22:34;;;;;;;11.33;10.23;;;9.70;81.00;;;;;;5013017;28;20417;-83
2021/10/26 05:25:00;;;;;;;12.50;11.40;;;9.70;81.80;;;;;;5012809;28;20427;-82
2021/10/26 05:27:25;;;;;;;11.87;10.20;;;9.70;81.80;;;;;;5012811;28;20235;-83
2021/10/26 05:29:51;;;;;;;13.43;12.13;;;9.60;82.20;;;;;;5012573;28;20201;-82
2021/10/26 05:32:17;;;;;;;11.90;10.70;;;9.60;82.40;;;;;;5012659;28;20181;-82
2021/10/26 05:34:43;;;;;;;12.30;11.10;;;9.60;83.40;;;;;;5012424;28;20235;-82
2021/10/26 05:37:10;;;;;;;11.70;10.63;;;9.60;83.40;;;;;;5012485;28;20438;-85
2021/10/26 05:39:38;;;;;;;12.30;11.10;;;9.70;82.60;;;;;;5012534;28;20992;-83
2021/10/26 05:42:04;;;;;;;11.23;9.93;;;9.70;81.80;;;;;;5012657;28;20420;-83
2021/10/26 05:44:30;;;;;;;12.87;11.40;;;9.70;81.70;;;;;;5012713;28;20424;-82
2021/10/26 05:46:56;;;;;;;11.07;10.07;;;9.80;81.40;;;;;;5022428;28;20445;-83
2021/10/26 05:49:21;;;;;;;12.40;11.13;;;9.70;81.80;;;;;;5032737;28;20226;-83
2021/10/26 05:51:48;;;;;;;12.53;11.43;;;9.70;82.60;;;;;;5033425;28;20173;-81
2021/10/26 05:54:14;;;;;;;11.90;10.90;;;9.80;82.90;;;;;;5028972;28;20347;-82
2021/10/26 05:56:40;;;;;;;14.80;11.73;;;9.70;82.70;;;;;;5031977;28;20419;-82
2021/10/26 05:59:05;;;;;;;13.67;12.30;;;9.70;83.30;;;;;;5034420;28;20179;-86
2021/10/26 06:01:31;;;;;;;13.30;12.00;;;9.80;83.70;;;;;;5031402;28;20190;-88
2021/10/26 06:03:57;;;;;;;18.90;11.40;;;9.80;83.50;;;;;;5031808;28;20180;-88
2021/10/26 06:06:22;;;;;;;12.10;10.50;;;9.80;83.40;;;;;;5033555;28;20172;-87
2021/10/26 06:08:51;;;;;;;13.37;11.03;;;9.80;83.00;;;;;;5032321;28;20185;-86
2021/10/26 06:11:21;;;;;;;12.73;10.80;;;9.80;82.70;;;;;;5032322;28;20533;-88
2021/10/26 06:13:51;;;;;;;12.13;10.93;;;9.80;82.60;;;;;;5033527;28;20411;-90
2021/10/26 06:16:16;;;;;;;12.20;11.00;;;9.80;82.20;;;;;;5032798;28;20407;-86
2021/10/26 06:18:42;;;;;;;12.00;10.50;;;9.80;83.00;;;;;;5032637;28;20425;-86
2021/10/26 06:21:08;;;;;;;12.10;10.90;;;9.80;81.90;;;;;;5031465;28;20181;-84
2021/10/26 06:23:34;;;;;;;12.70;11.60;;;9.70;81.80;;;;;;5029639;28;20185;-85
2021/10/26 06:26:00;;;;;;;14.50;12.27;;;9.70;82.60;;;;;;5032609;28;20177;-85
2021/10/26 06:28:27;;;;;;;11.40;10.37;;;9.80;83.30;;;;;;5031724;28;20263;-85
2021/10/26 06:30:53;;;;;;;13.80;12.20;;;9.90;84.50;;;;;;5031938;28;20467;-86
2021/10/26 06:33:19;;;;;;;12.77;11.00;;;9.90;83.20;;;;;;5031538;28;20416;-86
2021/10/26 06:35:45;;;;;;;13.57;12.27;;;10.00;81.80;;;;;;5033041;28;20207;-86
2021/10/26 06:38:11;;;;;;;13.23;12.07;;;10.00;81.90;;;;;;5031455;28;20201;-86
2021/10/26 06:40:37;;;;;;;11.57;10.37;;;10.00;81.50;;;;;;5031398;28;20423;-83
2021/10/26 06:43:02;;;;;;;13.07;11.57;;;10.00;81.70;;;;;;5031260;28;20742;-83
2021/10/26 06:45:28;;;;;;;12.80;10.47;;;10.00;82.30;;;;;;5030862;28;20472;-84
2021/10/26 06:47:54;;;;;;;13.00;11.80;;;10.10;82.50;;;;;;5030910;28;20271;-90
2021/10/26 06:50:20;;;;;;;14.00;12.17;;;10.10;82.90;;;;;;5031749;28;20197;-88
2021/10/26 06:52:46;;;;;;;13.30;12.00;;;10.10;82.60;;;;;;5031596;28;20179;-86
2021/10/26 06:55:17;;;;;;;13.60;12.37;;;10.20;81.90;;;;;;5031086;28;20770;-86
2021/10/26 06:57:45;;;;;;;13.37;11.77;;;10.20;82.10;;;;;;5030569;28;20191;-87
2021/10/26 07:00:11;;;;;;;13.37;11.97;;;10.20;81.20;;;;;;5031637;28;20522;-86
2021/10/26 07:02:51;;;;;;;12.87;11.50;;;10.20;81.20;;;;;;5030733;28;20411;-86
2021/10/26 07:05:23;;;;;;;13.27;11.70;;;10.30;80.50;;;;;;5031096;28;20557;-85
2021/10/26 07:07:50;;;;;;;13.50;11.30;;;10.30;80.30;;;;;;5030966;28;20814;-86
2021/10/26 07:10:17;;;;;;;13.80;10.90;;;10.30;80.50;;;;;;5030714;28;20455;-85
2021/10/26 07:12:43;;;;;;;11.80;10.60;;;10.30;81.00;;;;;;5030764;28;20769;-85
2021/10/26 07:15:10;;;;;;;12.63;11.33;;;10.30;80.90;;;;;;5034830;28;20434;-85
2021/10/26 07:17:38;;;;;;;13.27;11.93;;;10.40;80.30;;;;;;5035919;28;20173;-86
2021/10/26 07:20:09;;;;;;;14.93;12.80;;;10.40;79.10;;;;;;5034773;28;20415;-85
2021/10/26 07:22:35;;;;;;;12.93;11.53;;;10.40;79.60;;;;;;5034913;28;20423;-85
2021/10/26 07:25:06;;;;;;;13.33;12.00;;;10.40;79.40;;;;;;5035147;28;20412;-83
2021/10/26 07:27:32;;;;;;;13.07;11.60;;;10.40;79.80;;;;;;5033007;28;20427;-82
2021/10/26 07:29:59;;;;;;;10.00;9.00;;;10.50;80.20;;;;;;5032898;28;20873;-81
2021/10/26 07:32:25;;;;;;;12.90;11.70;;;10.50;79.70;;;;;;5034293;28;20415;-83
2021/10/26 07:34:51;;;;;;;13.43;12.23;;;10.50;79.10;;;;;;5033309;28;20770;-82
2021/10/26 07:37:22;;;;;;;14.67;12.77;;;10.50;79.20;;;;;;5032757;28;20492;-83
2021/10/26 07:39:50;;;;;;;14.83;12.30;;;10.60;80.10;;;;;;5033672;28;20414;-83
2021/10/26 07:42:19;;;;;;;13.37;11.67;;;10.60;79.30;;;;;;5033124;28;20426;-83
2021/10/26 07:44:48;;;;;;;12.10;10.90;;;10.70;79.40;;;;;;5033884;28;20411;-83
2021/10/26 07:47:19;;;;;;;12.70;10.67;;;10.70;78.30;;;;;;5033410;28;20554;-82
2021/10/26 07:49:45;;;;;;;15.60;14.00;;;10.70;78.70;;;;;;5034028;28;20458;-87
2021/10/26 07:52:12;;;;;;;14.60;13.13;;;10.80;79.00;;;;;;5034323;28;20430;-86
2021/10/26 07:54:39;;;;;;;17.37;12.13;;;10.90;78.50;;;;;;5034704;28;20427;-91
2021/10/26 07:57:05;;;;;;;13.73;11.60;;;11.00;76.60;;;;;;5035712;28;20963;-90
2021/10/26 07:59:31;;;;;;;13.33;11.10;;;11.00;76.50;;;;;;5035409;28;20425;-90
2021/10/26 08:01:57;;;;;;;13.13;11.33;;;11.00;77.10;;;;;;5035212;28;20447;-90
2021/10/26 08:04:23;;;;;;;11.63;10.57;;;11.10;76.10;;;;;;5036319;28;20419;-90
2021/10/26 08:06:49;;;;;;;13.63;12.23;;;11.10;76.60;;;;;;5034633;28;20830;-87
2021/10/26 08:09:18;;;;;;;12.17;10.50;;;11.20;74.10;;;;;;5033209;28;20426;-86
2021/10/26 08:11:44;;;;;;;11.83;10.77;;;11.10;75.60;;;;;;5018517;28;20420;-86
2021/10/26 08:14:11;;;;;;;12.50;9.60;;;11.10;75.60;;;;;;5024618;28;20742;-86
2021/10/26 08:16:36;;;;;;;12.73;11.40;;;11.20;74.00;;;;;;5033576;28;20411;-86
2021/10/26 08:19:03;;;;;;;12.53;11.23;;;11.30;73.30;;;;;;5032638;28;20827;-87
2021/10/26 08:21:28;;;;;;;11.03;9.77;;;11.40;74.80;;;;;;5033850;28;20419;-85
2021/10/26 08:23:57;;;;;;;14.40;11.10;;;11.50;75.90;;;;;;5034931;28;20411;-86
2021/10/26 08:26:28;;;;;;;10.70;9.80;;;11.60;75.20;;;;;;5032471;28;20422;-86
2021/10/26 08:29:04;;;;;;;12.83;10.57;;;11.60;74.70;;;;;;5034294;28;20786;-88
2021/10/26 08:31:40;;;;;;;9.93;9.03;;;11.60;74.50;;;;;;5033971;28;20550;-86
2021/10/26 08:34:17;;;;;;;12.07;10.77;;;11.60;74.50;;;;;;5033833;28;20407;-87
2021/10/26 08:36:55;;;;;;;16.87;11.60;;;11.70;75.30;;;;;;5035508;28;20427;-88
2021/10/26 08:39:21;;;;;;;12.60;11.33;;;11.70;74.90;;;;;;5034231;28;20412;-86
2021/10/26 08:41:51;;;;;;;14.93;11.30;;;11.70;75.40;;;;;;5034500;28;20396;-85
2021/10/26 08:44:18;;;;;;;12.57;11.27;;;11.80;73.40;;;;;;5033406;28;20536;-87
2021/10/26 08:46:45;;;;;;;13.77;12.33;;;11.80;71.90;;;;;;5033306;28;20758;-85
2021/10/26 08:49:15;;;;;;;12.63;10.50;;;11.90;73.00;;;;;;5034538;28;20419;-87
2021/10/26 08:51:44;;;;;;;10.63;9.47;;;12.00;73.10;;;;;;5034549;28;20463;-86
2021/10/26 08:54:10;;;;;;;12.60;10.43;;;12.10;70.50;;;;;;5034854;28;20423;-87
2021/10/26 08:56:36;;;;;;;10.40;9.43;;;12.10;70.30;;;;;;5034433;28;20416;-88
2021/10/26 08:59:02;;;;;;;11.53;10.13;;;12.20;69.30;;;;;;5035462;28;20494;-87
2021/10/26 09:01:29;;;;;;;9.93;8.60;;;12.20;71.10;;;;;;5034772;28;20185;-88
2021/10/26 09:04:07;;;;;;;11.07;10.00;;;12.20;70.50;;;;;;5034202;28;20419;-85
2021/10/26 09:06:45;;;;;;;10.13;9.10;;;12.30;70.00;;;;;;5033554;28;20477;-87
2021/10/26 09:09:17;;;;;;;11.70;8.37;;;12.50;68.50;;;;;;5033339;28;20459;-87
2021/10/26 09:16:39;;;;;;;10.03;9.03;;;12.60;67.90;;;;;;5033148;28;20532;-87
2021/10/26 09:17:22;;;;;;;9.77;7.50;;;12.70;66.00;;;;;;5033582;28;20421;-87
2021/10/26 09:19:47;;;;;;;12.20;8.43;;;12.80;64.20;;;;;;5033440;28;20418;-84
2021/10/26 09:22:16;;;;;;;10.57;7.27;;;12.80;63.70;;;;;;5032502;28;20419;-87
2021/10/26 09:25:01;;;;;;;9.40;8.60;;;12.90;66.30;;;;;;5032171;28;20198;-87
2021/10/26 09:27:28;;;;;;;8.23;7.37;;;12.90;63.80;;;;;;5033907;28;20423;-85
2021/10/26 09:29:58;;;;;;;8.70;7.03;;;12.90;66.40;;;;;;5034369;28;21086;-88
2021/10/26 09:32:44;;;;;;;8.63;7.47;;;12.90;67.90;;;;;;5033478;28;20407;-87
2021/10/26 09:35:16;;;;;;;8.10;6.20;;;13.00;64.80;;;;;;5032969;28;20439;-87
2021/10/26 09:37:49;;;;;;;8.40;6.67;;;13.00;66.40;;;;;;5031984;28;20439;-88
2021/10/26 09:40:15;;;;;;;8.30;6.90;;;13.10;66.40;;;;;;5033040;28;20423;-87
2021/10/26 09:42:52;;;;;;;7.93;5.83;;;13.10;65.30;;;;;;5033151;28;20435;-86
2021/10/26 09:45:23;;;;;;;8.33;6.53;;;13.10;66.70;;;;;;5031995;28;20421;-86
2021/10/26 09:47:51;;;;;;;5.13;4.63;;;13.10;64.00;;;;;;5031720;28;20423;-87
2021/10/26 09:50:17;;;;;;;5.50;5.00;;;13.10;64.60;;;;;;5032146;28;20562;-88
2021/10/26 09:52:47;;;;;;;5.93;5.10;;;13.10;66.00;;;;;;5031602;28;20502;-86
2021/10/26 09:55:24;;;;;;;5.10;4.50;;;13.10;67.40;;;;;;5032568;28;20203;-87
2021/10/26 09:57:58;;;;;;;6.10;5.20;;;13.20;64.10;;;;;;5032205;28;20413;-85
2021/10/26 10:00:27;;;;;;;5.63;5.20;;;13.20;65.30;;;;;;5012309;28;20755;-86
2021/10/26 10:03:11;;;;;;;8.53;7.70;;;13.30;64.90;;;;;;5012538;28;20412;-86
2021/10/26 10:05:59;;;;;;;10.57;6.90;;;13.30;64.20;;;;;;5012892;28;20813;-87
2021/10/26 10:08:28;;;;;;;5.57;4.93;;;13.40;65.30;;;;;;5012201;28;20470;-86
2021/10/26 10:10:55;;;;;;;4.90;3.73;;;13.30;62.90;;;;;;5012356;28;20547;-87
2021/10/26 10:13:22;;;;;;;4.67;3.80;;;13.40;61.60;;;;;;5013334;28;20848;-86
2021/10/26 10:15:49;;;;;;;7.67;4.57;;;13.40;63.40;;;;;;5013195;28;20416;-86
2021/10/26 10:18:20;;;;;;;4.33;3.77;;;13.40;63.80;;;;;;5014742;28;20420;-87
2021/10/26 10:20:53;;;;;;;4.43;3.87;;;13.40;61.90;;;;;;5013590;28;20488;-88
2021/10/26 10:23:21;;;;;;;7.40;5.33;;;13.40;62.10;;;;;;5014425;28;20412;-87
2021/10/26 10:25:47;;;;;;;4.63;3.73;;;13.50;61.90;;;;;;5012851;28;20478;-87
2021/10/26 10:28:18;;;;;;;4.37;3.40;;;13.40;61.50;;;;;;5012534;28;20429;-88
2021/10/26 10:30:45;;;;;;;4.03;3.40;;;13.50;60.90;;;;;;5012867;28;20483;-86
2021/10/26 10:33:11;;;;;;;7.63;4.13;;;13.50;59.70;;;;;;5011307;28;20412;-86
2021/10/26 10:35:38;;;;;;;7.73;3.10;;;13.60;61.30;;;;;;5011426;28;20424;-86
2021/10/26 10:38:06;;;;;;;4.57;3.83;;;13.70;61.50;;;;;;5011833;28;20449;-86
2021/10/26 10:40:33;;;;;;;3.83;3.23;;;13.80;57.70;;;;;;5011700;28;20431;-86
2021/10/26 10:42:59;;;;;;;3.23;2.50;;;13.70;59.00;;;;;;5012479;28;20471;-86
2021/10/26 10:45:32;;;;;;;5.03;3.27;;;13.80;57.00;;;;;;5012012;28;20438;-86
2021/10/26 10:48:02;;;;;;;5.57;3.67;;;13.90;59.10;;;;;;5012430;28;20430;-86
2021/10/26 10:50:38;;;;;;;3.67;3.40;;;13.90;57.90;;;;;;5017641;28;20466;-87
2021/10/26 10:53:18;;;;;;;5.63;3.63;;;13.80;58.20;;;;;;5017960;28;20757;-84
2021/10/26 10:55:47;;;;;;;3.50;3.20;;;13.90;57.20;;;;;;5018607;28;20428;-87
2021/10/26 10:58:30;;;;;;;6.07;3.83;;;13.90;59.00;;;;;;5020724;28;20408;-87
2021/10/26 11:01:20;;;;;;;9.87;3.77;;;13.90;60.00;;;;;;5021037;28;20411;-86
2021/10/26 11:03:47;;;;;;;6.17;2.63;;;14.00;59.30;;;;;;5020869;28;20431;-86
2021/10/26 11:06:51;;;;;;;4.50;3.00;;;14.00;58.60;;;;;;5022289;28;20408;-90
2021/10/26 11:09:30;;;;;;;6.20;3.30;;;14.10;58.40;;;;;;5021135;28;20419;-91
2021/10/26 11:12:38;;;;;;;3.40;3.10;;;14.00;55.70;;;;;;5020088;28;20418;-90
2021/10/26 11:15:07;;;;;;;7.33;3.20;;;14.10;56.00;;;;;;5021218;28;20396;-91
2021/10/26 11:17:35;;;;;;;4.13;2.97;;;14.10;56.50;;;;;;5026163;28;20408;-90
2021/10/26 11:20:05;;;;;;;2.93;2.60;;;14.10;56.30;;;;;;5020431;28;20412;-90
2021/10/26 11:23:05;;;;;;;8.33;5.50;;;14.10;56.40;;;;;;5021884;28;20507;-90
2021/10/26 11:25:36;;;;;;;5.17;3.37;;;14.10;55.40;;;;;;4980446;28;20423;-90
2021/10/26 11:28:18;;;;;;;3.13;2.93;;;14.10;56.10;;;;;;5020844;28;20411;-92
2021/10/26 11:30:44;;;;;;;3.80;2.90;;;14.20;55.30;;;;;;5022434;28;20975;-93
2021/10/26 11:33:12;;;;;;;4.43;3.10;;;14.20;54.50;;;;;;5022842;28;20409;-92
2021/10/26 11:35:49;;;;;;;3.57;3.27;;;14.20;53.70;;;;;;5023132;28;20407;-92
2021/10/26 11:38:30;;;;;;;3.37;2.80;;;14.20;54.10;;;;;;5020880;28;20431;-92
2021/10/26 11:41:08;;;;;;;3.20;2.70;;;14.30;53.60;;;;;;5022299;28;20431;-92
2021/10/26 11:43:53;;;;;;;3.63;2.70;;;14.20;53.50;;;;;;5022323;28;20415;-91
2021/10/26 11:46:35;;;;;;;3.83;3.33;;;14.30;53.70;;;;;;5024551;28;20781;-93
2021/10/26 11:49:04;;;;;;;3.80;3.50;;;14.30;53.80;;;;;;5040910;28;20415;-91
2021/10/26 11:51:49;;;;;;;3.10;2.80;;;14.30;53.70;;;;;;5041860;28;20470;-92
2021/10/26 11:54:26;;;;;;;3.73;2.70;;;14.20;53.70;;;;;;5041971;28;20442;-92
2021/10/26 11:56:56;;;;;;;4.27;3.30;;;14.20;54.40;;;;;;5043698;28;20438;-92
2021/10/26 11:59:22;;;;;;;4.50;3.50;;;14.10;53.90;;;;;;5043654;28;20403;-91
2021/10/26 12:01:56;;;;;;;2.93;2.60;;;14.10;53.50;;;;;;5039994;28;20422;-91
2021/10/26 12:04:31;;;;;;;3.83;3.53;;;14.00;53.30;;;;;;5040239;28;20821;-92
2021/10/26 12:07:04;;;;;;;4.33;3.20;;;13.90;54.20;;;;;;5039799;28;20509;-92
2021/10/26 12:09:32;;;;;;;4.30;3.03;;;14.00;54.90;;;;;;5039376;28;20423;-86
2021/10/26 12:12:04;;;;;;;3.33;3.00;;;14.00;54.90;;;;;;5035547;28;20482;-92
2021/10/26 12:14:41;;;;;;;3.37;3.07;;;14.00;54.90;;;;;;5036845;28;20443;-93
2021/10/26 12:17:13;;;;;;;5.47;2.93;;;14.00;55.10;;;;;;5016803;28;20416;-94
2021/10/26 12:20:02;;;;;;;3.80;2.97;;;14.00;55.30;;;;;;5021165;28;20423;-91
2021/10/26 12:22:33;;;;;;;6.10;3.33;;;14.00;54.60;;;;;;5018277;28;20426;-91
2021/10/26 12:25:00;;;;;;;4.30;2.67;;;14.10;55.00;;;;;;5016743;28;20470;-92
2021/10/26 12:27:32;;;;;;;2.17;2.07;;;14.10;55.10;;;;;;5016511;28;20471;-92
2021/10/26 12:30:09;;;;;;;4.70;3.23;;;14.10;55.00;;;;;;5016407;28;20467;-92
2021/10/26 12:32:35;;;;;;;4.50;3.00;;;14.10;54.80;;;;;;5015706;28;20781;-92
2021/10/26 12:35:01;;;;;;;3.50;3.07;;;14.00;54.10;;;;;;5015384;28;20443;-91
2021/10/26 12:37:33;;;;;;;2.83;2.63;;;14.00;54.50;;;;;;5017473;28;20367;-91
2021/10/26 12:40:01;;;;;;;3.70;2.97;;;14.10;55.10;;;;;;5015815;28;20846;-93
2021/10/26 12:42:36;;;;;;;6.30;3.63;;;14.10;55.00;;;;;;5015956;28;20412;-89
2021/10/26 12:45:05;;;;;;;4.87;3.50;;;14.20;54.40;;;;;;5015687;28;20443;-93
2021/10/26 12:47:51;;;;;;;4.60;3.57;;;14.20;54.40;;;;;;5015767;28;20511;-92
2021/10/26 12:50:34;;;;;;;3.30;3.00;;;14.20;54.30;;;;;;5016943;28;20460;-93